Time;durP1;ratioP1;P1;durP2;ratioP2;P2;SDS_P1;SDS_P2;PMS_P1;PMS_P2;Temp;Humidity;BMP_temperature;BMP_pressure;BME280_temperature;BME280_humidity;BME280_pressure;Samples;Min_cycle;Max_cycle;Signal;HPM_P1;HPM_P2
2022/06/04 00:00:29;;;;;;;;;;;;;;;-144.99;86.74;52333.94;5053305;28;20043;-71
2022/06/04 00:02:55;;;;;;;;;;;;;;;-144.99;87.00;52293.19;5038898;28;20020;-72
2022/06/04 00:05:24;;;;;;;;;;;;;;;-144.99;87.07;52297.25;5052293;28;20320;-72
2022/06/04 00:07:51;;;;;;;;;;;;;;;-144.99;87.53;52313.56;5053052;28;19967;-72
2022/06/04 00:15:50;;;;;;;;;;;;;;;-144.99;88.32;52315.59;5053467;28;20509;-71
2022/06/04 00:18:18;;;;;;;;;;;;;;;-144.99;88.39;52317.66;5055619;28;20073;-72
2022/06/04 00:20:45;;;;;;;;;;;;;;;-144.99;88.92;52315.59;5052055;28;20004;-72
2022/06/04 00:23:12;;;;;;;;;;;;;;;-144.99;89.17;52252.44;5050900;28;20382;-72
2022/06/04 00:25:40;;;;;;;;;;;;;;;-144.99;89.18;52327.84;5052945;28;19950;-71
2022/06/04 00:28:09;;;;;;;;;;;;;;;-144.99;89.65;52297.25;5052118;28;20018;-70
2022/06/04 00:30:35;;;;;;;;;;;;;;;-144.99;90.31;52280.97;5048994;28;19956;-70
2022/06/04 00:33:04;;;;;;;;;;;;;;;-144.99;90.11;52293.19;5052332;28;20370;-70
2022/06/04 00:35:31;;;;;;;;;;;;;;;-144.99;90.81;52333.94;5052833;28;19950;-70
2022/06/04 00:37:58;;;;;;;;;;;;;;;-144.99;90.70;52311.53;5052551;28;20018;-70
2022/06/04 00:40:31;;;;;;;;;;;;;;;-144.99;90.99;52325.81;5049104;28;20409;-72
2022/06/04 00:42:58;;;;;;;;;;;;;;;-144.99;91.07;52321.72;5052075;28;20430;-68
2022/06/04 00:45:58;;;;;;;;;;;;;;;-144.99;91.61;52293.19;5052285;28;19997;-68
2022/06/04 00:48:26;;;;;;;;;;;;;;;-144.99;92.14;52293.19;5052524;28;20027;-68
2022/06/04 00:50:52;;;;;;;;;;;;;;;-144.99;92.10;52338.03;5048604;28;20247;-68
2022/06/04 00:53:19;;;;;;;;;;;;;;;-144.99;92.63;52309.50;5044273;28;20079;-68
2022/06/04 00:55:48;;;;;;;;;;;;;;;-144.99;93.04;52280.97;5052117;28;19967;-68
2022/06/04 00:58:25;;;;;;;;;;;;;;;-144.99;92.83;52309.50;5055515;22;20581;-67
2022/06/04 01:00:54;;;;;;;;;;;;;;;-144.99;93.34;52319.69;5031195;28;20056;-66
2022/06/04 01:03:27;;;;;;;;;;;;;;;-144.99;93.24;52287.06;5031405;28;20004;-65
2022/06/04 01:06:03;;;;;;;;;;;;;;;-144.99;93.42;52283.00;5029410;28;20037;-68
2022/06/04 01:08:40;;;;;;;;;;;;;;;-144.99;94.45;52301.34;5023494;28;20022;-67
2022/06/04 01:11:13;;;;;;;;;;;;;;;-144.99;95.08;52338.03;5031550;28;20395;-64
2022/06/04 01:13:46;;;;;;;;;;;;;;;-144.99;95.27;52319.69;5031391;28;19986;-64
2022/06/04 01:16:17;;;;;;;;;;;;;;;-144.99;95.33;52301.34;5030865;28;20486;-62
2022/06/04 01:18:52;;;;;;;;;;;;;;;-144.99;95.72;52313.56;5028160;28;20072;-63
2022/06/04 01:21:23;;;;;;;;;;;;;;;-144.99;95.86;52317.66;5030990;28;20470;-62
2022/06/04 01:24:07;;;;;;;;;;;;;;;-144.99;96.51;52333.94;5027787;28;19984;-63
2022/06/04 01:26:55;;;;;;;;;;;;;;;-144.99;96.87;52303.38;5023780;28;19949;-62
2022/06/04 01:29:24;;;;;;;;;;;;;;;-144.99;97.28;52301.34;5030066;28;20025;-63
2022/06/04 01:31:54;;;;;;;;;;;;;;;-144.99;97.09;52346.19;5030387;28;20010;-63
2022/06/04 01:34:23;;;;;;;;;;;;;;;-144.99;97.55;52297.25;5030920;28;20010;-63
2022/06/04 01:36:53;;;;;;;;;;;;;;;-144.99;97.29;52321.72;5031208;28;20034;-64
2022/06/04 01:39:21;;;;;;;;;;;;;;;-144.99;97.73;52313.56;5031152;28;20055;-64
2022/06/04 01:41:50;;;;;;;;;;;;;;;-144.99;98.35;52317.66;5031382;28;20045;-64
2022/06/04 01:44:20;;;;;;;;;;;;;;;-144.99;98.70;52319.69;5031031;28;20338;-64
2022/06/04 01:46:51;;;;;;;;;;;;;;;-144.99;98.84;52297.25;5030131;28;19981;-64
2022/06/04 01:49:20;;;;;;;;;;;;;;;-144.99;98.70;52301.34;5027698;28;19967;-63
2022/06/04 01:51:48;;;;;;;;;;;;;;;-144.99;98.77;52289.13;5030551;28;19971;-61
2022/06/04 01:54:18;;;;;;;;;;;;;;;-144.99;99.18;52336.00;5030580;28;20028;-61
2022/06/04 01:56:48;;;;;;;;;;;;;;;-144.99;99.84;52309.50;5029756;28;19999;-60
2022/06/04 01:59:18;;;;;;;;;;;;;;;-144.99;100.00;52301.34;5022079;28;20034;-60
2022/06/04 02:01:47;;;;;;;;;;;;;;;-144.99;100.00;52350.25;5029400;28;20062;-59
2022/06/04 02:04:18;;;;;;;;;;;;;;;-144.99;100.00;52319.69;5028117;28;20064;-60
2022/06/04 02:07:29;;;;;;;;;;;;;;;-144.99;100.00;52342.09;5029636;28;20035;-60
2022/06/04 02:09:35;;;;;;;;;;;;;;;-144.99;100.00;52317.66;5027229;28;19965;-59
2022/06/04 02:12:04;;;;;;;;;;;;;;;-144.99;100.00;52301.34;5026438;28;20013;-59
2022/06/04 02:14:32;;;;;;;;;;;;;;;-144.99;100.00;52297.25;5030288;28;20085;-59
2022/06/04 02:17:02;;;;;;;;;;;;;;;-144.99;100.00;52301.34;5029718;28;20076;-60
2022/06/04 02:19:30;;;;;;;;;;;;;;;-144.99;100.00;52285.03;5028894;28;20460;-66
2022/06/04 02:21:57;;;;;;;;;;;;;;;-144.99;100.00;52319.69;5030609;28;20012;-66
2022/06/04 02:24:23;;;;;;;;;;;;;;;-144.99;100.00;52325.81;5029514;28;20008;-65
2022/06/04 02:26:50;;;;;;;;;;;;;;;-144.99;100.00;52305.41;5025955;28;20040;-65
2022/06/04 02:29:17;;;;;;;;;;;;;;;-144.99;100.00;52283.00;5029762;28;20014;-63
2022/06/04 02:31:49;;;;;;;;;;;;;;;-144.99;100.00;52319.69;5029324;28;20007;-62
2022/06/04 02:34:19;;;;;;;;;;;;;;;-144.99;100.00;52307.47;5029247;28;20088;-62
2022/06/04 02:36:51;;;;;;;;;;;;;;;-144.99;100.00;52305.41;5028425;28;20031;-62
2022/06/04 02:39:21;;;;;;;;;;;;;;;-144.99;100.00;52319.69;5030195;28;19973;-62
2022/06/04 02:41:52;;;;;;;;;;;;;;;-144.99;100.00;52283.00;5029231;28;20077;-62
2022/06/04 02:44:20;;;;;;;;;;;;;;;-144.99;100.00;52325.81;5029959;28;20057;-62
2022/06/04 02:46:50;;;;;;;;;;;;;;;-144.99;100.00;52280.97;5028962;28;20092;-62
2022/06/04 02:49:19;;;;;;;;;;;;;;;-144.99;100.00;52305.41;5026175;28;20112;-63
2022/06/04 02:51:55;;;;;;;;;;;;;;;-144.99;100.00;52272.81;5029271;28;20382;-64
2022/06/04 02:54:24;;;;;;;;;;;;;;;-144.99;100.00;52323.75;5027813;28;19995;-64
2022/06/04 02:56:52;;;;;;;;;;;;;;;-144.99;100.00;52289.13;5024319;28;20423;-64
2022/06/04 02:59:21;;;;;;;;;;;;;;;-144.99;100.00;52303.38;5027520;28;20079;-63
2022/06/04 03:01:51;;;;;;;;;;;;;;;-144.99;100.00;52276.88;5025875;28;20009;-64
2022/06/04 03:04:18;;;;;;;;;;;;;;;-144.99;100.00;52303.38;5023412;28;20057;-64
2022/06/04 03:06:44;;;;;;;;;;;;;;;-144.99;100.00;52285.03;5028656;28;20033;-63
2022/06/04 03:09:14;;;;;;;;;;;;;;;-144.99;100.00;52311.53;5029133;28;19975;-64
2022/06/04 03:11:43;;;;;;;;;;;;;;;-144.99;100.00;52301.34;5022404;28;20387;-65
2022/06/04 03:14:09;;;;;;;;;;;;;;;-144.99;100.00;52313.56;5029120;28;19990;-64
2022/06/04 03:16:36;;;;;;;;;;;;;;;-144.99;100.00;52285.03;5028610;28;20078;-65
2022/06/04 03:19:03;;;;;;;;;;;;;;;-144.99;100.00;52327.84;5028873;28;19985;-65
2022/06/04 03:21:30;;;;;;;;;;;;;;;-144.99;100.00;52323.75;5028785;28;20060;-64
2022/06/04 03:23:56;;;;;;;;;;;;;;;-144.99;100.00;52317.66;5025039;28;20008;-64
2022/06/04 03:26:24;;;;;;;;;;;;;;;-144.99;100.00;52321.72;5025321;28;20166;-66
2022/06/04 03:28:51;;;;;;;;;;;;;;;-144.99;100.00;52309.50;5028340;28;19976;-64
2022/06/04 03:31:18;;;;;;;;;;;;;;;-144.99;100.00;52331.91;5028555;28;19993;-64
2022/06/04 03:33:44;;;;;;;;;;;;;;;-144.99;100.00;52321.72;5028938;28;19970;-65
2022/06/04 03:36:11;;;;;;;;;;;;;;;-144.99;100.00;52333.94;5028944;28;20035;-64
2022/06/04 03:38:37;;;;;;;;;;;;;;;-144.99;100.00;52289.13;5028777;28;20069;-63
2022/06/04 03:41:04;;;;;;;;;;;;;;;-144.99;100.00;52287.06;5028504;28;20440;-63
2022/06/04 03:43:32;;;;;;;;;;;;;;;-144.99;100.00;52301.34;5028546;28;19990;-62
2022/06/04 03:45:58;;;;;;;;;;;;;;;-144.99;100.00;52256.50;5028456;28;19968;-63
2022/06/04 03:48:25;;;;;;;;;;;;;;;-144.99;100.00;52321.72;5027068;28;20605;-63
2022/06/04 03:50:51;;;;;;;;;;;;;;;-144.99;100.00;52280.97;5029208;28;20358;-60
2022/06/04 03:53:18;;;;;;;;;;;;;;;-144.99;100.00;52317.66;5028355;28;20030;-60
2022/06/04 03:55:44;;;;;;;;;;;;;;;-144.99;100.00;52321.72;5028390;28;19990;-60
2022/06/04 03:58:11;;;;;;;;;;;;;;;-144.99;100.00;52305.41;5028238;28;20010;-60
2022/06/04 04:00:39;;;;;;;;;;;;;;;-144.99;100.00;52305.41;5027285;28;20512;-60
2022/06/04 04:03:07;;;;;;;;;;;;;;;-144.99;100.00;52327.84;5024077;28;20402;-60
2022/06/04 04:05:36;;;;;;;;;;;;;;;-144.99;100.00;52293.19;5023886;28;20443;-60
2022/06/04 04:08:04;;;;;;;;;;;;;;;-144.99;100.00;52305.41;5028841;28;19989;-61
2022/06/04 04:10:31;;;;;;;;;;;;;;;-144.99;100.00;52303.38;5028925;28;20031;-61
2022/06/04 04:12:57;;;;;;;;;;;;;;;-144.99;100.00;52303.38;5028939;28;20207;-61
2022/06/04 04:15:24;;;;;;;;;;;;;;;-144.99;100.00;52342.09;5028412;28;19992;-61
2022/06/04 04:17:52;;;;;;;;;;;;;;;-144.99;100.00;52333.94;5028470;28;20028;-61
2022/06/04 04:20:20;;;;;;;;;;;;;;;-144.99;100.00;52256.50;5028374;28;19984;-61
2022/06/04 04:22:46;;;;;;;;;;;;;;;-144.99;100.00;52285.03;5028213;28;20406;-62
2022/06/04 04:25:14;;;;;;;;;;;;;;;-144.99;100.00;52321.72;5028519;28;20077;-62
2022/06/04 04:27:40;;;;;;;;;;;;;;;-144.99;100.00;52289.13;5024490;28;19980;-61
2022/06/04 04:30:08;;;;;;;;;;;;;;;-144.99;100.00;52311.53;5031390;28;20014;-61
2022/06/04 04:32:34;;;;;;;;;;;;;;;-144.99;100.00;52293.19;5031749;28;20060;-61
2022/06/04 04:35:04;;;;;;;;;;;;;;;-144.99;100.00;52276.88;5032113;28;20025;-59
2022/06/04 04:37:31;;;;;;;;;;;;;;;-144.99;100.00;52289.13;5032063;28;19995;-60
2022/06/04 04:39:57;;;;;;;;;;;;;;;-144.99;100.00;52268.72;5031440;28;19966;-60
2022/06/04 04:42:24;;;;;;;;;;;;;;;-144.99;100.00;52285.03;5031478;28;20007;-61
2022/06/04 04:44:50;;;;;;;;;;;;;;;-144.99;100.00;52317.66;5031638;28;20051;-61
2022/06/04 04:47:17;;;;;;;;;;;;;;;-144.99;100.00;52309.50;5030062;28;19990;-61
2022/06/04 04:49:43;;;;;;;;;;;;;;;-144.99;100.00;52293.19;5030165;28;20439;-66
2022/06/04 04:52:11;;;;;;;;;;;;;;;-144.99;100.00;52268.72;5029448;28;20413;-66
2022/06/04 04:54:38;;;;;;;;;;;;;;;-144.99;100.00;52260.56;5031586;28;19970;-68
2022/06/04 04:57:05;;;;;;;;;;;;;;;-144.99;100.00;52301.34;5030774;28;19996;-68
2022/06/04 04:59:31;;;;;;;;;;;;;;;-144.99;100.00;52301.34;5028892;28;20351;-68
2022/06/04 05:01:57;;;;;;;;;;;;;;;-144.99;100.00;52272.81;5031182;28;20051;-67
2022/06/04 05:04:24;;;;;;;;;;;;;;;-144.99;100.00;52270.78;5029484;28;19999;-70
2022/06/04 05:06:50;;;;;;;;;;;;;;;-144.99;99.42;52285.03;5026308;28;20488;-67
2022/06/04 05:09:18;;;;;;;;;;;;;;;-144.99;98.67;52256.50;5031195;28;19955;-60
2022/06/04 05:11:45;;;;;;;;;;;;;;;-144.99;98.10;52264.66;5030912;28;20030;-60
2022/06/04 05:14:12;;;;;;;;;;;;;;;-144.99;97.62;52272.81;5031234;28;19973;-61
2022/06/04 05:16:39;;;;;;;;;;;;;;;-144.99;97.16;52262.63;5031202;28;19971;-60
2022/06/04 05:19:06;;;;;;;;;;;;;;;-144.99;96.78;52278.91;5031428;28;20014;-60
2022/06/04 05:21:37;;;;;;;;;;;;;;;-144.99;96.20;52248.34;5031478;28;20030;-60
2022/06/04 05:24:04;;;;;;;;;;;;;;;-144.99;95.47;52285.03;5025692;28;20597;-61
2022/06/04 05:26:32;;;;;;;;;;;;;;;-144.99;94.75;52260.56;5020763;28;19992;-61
2022/06/04 05:29:02;;;;;;;;;;;;;;;-144.99;93.31;52248.34;5032186;28;19971;-61
2022/06/04 05:31:28;;;;;;;;;;;;;;;-144.99;92.38;52295.22;5024984;28;19940;-61
2022/06/04 05:33:55;;;;;;;;;;;;;;;-144.99;91.53;52272.81;5023579;28;20047;-61
2022/06/04 05:36:21;;;;;;;;;;;;;;;-144.99;91.17;52280.97;5030352;28;20054;-61
2022/06/04 05:38:47;;;;;;;;;;;;;;;-144.99;90.17;52234.09;5031125;28;20008;-70
2022/06/04 05:41:14;;;;;;;;;;;;;;;-144.99;89.63;52272.81;5030936;28;20091;-63
2022/06/04 05:43:42;;;;;;;;;;;;;;;-144.99;88.82;52248.34;5030525;28;19936;-63
2022/06/04 05:46:09;;;;;;;;;;;;;;;-144.99;88.67;52219.81;5030321;28;20023;-64
2022/06/04 05:48:37;;;;;;;;;;;;;;;-144.99;87.20;52223.88;5024442;28;19925;-63
2022/06/04 05:51:04;;;;;;;;;;;;;;;-144.99;86.85;52272.81;5030716;28;20432;-62
2022/06/04 05:53:30;;;;;;;;;;;;;;;-144.99;86.21;52207.59;5031131;28;19945;-63
2022/06/04 05:55:57;;;;;;;;;;;;;;;-144.99;85.75;52252.44;5029339;28;20280;-62
2022/06/04 05:58:23;;;;;;;;;;;;;;;-144.99;84.50;52256.50;5030309;28;20000;-62
2022/06/04 06:00:58;;;;;;;;;;;;;;;-144.99;83.83;52223.88;5028153;28;19955;-62
2022/06/04 06:03:24;;;;;;;;;;;;;;;-144.99;82.64;52248.34;5030966;28;20398;-61
2022/06/04 06:05:51;;;;;;;;;;;;;;;-144.99;82.04;52264.66;5028197;28;19990;-62
2022/06/04 06:08:17;;;;;;;;;;;;;;;-144.99;81.28;52227.97;5030954;28;19971;-63
2022/06/04 06:10:44;;;;;;;;;;;;;;;-144.99;80.82;52236.13;5030475;28;20020;-64
2022/06/04 06:13:11;;;;;;;;;;;;;;;-144.99;81.05;52264.66;5030337;28;19968;-64
2022/06/04 06:15:38;;;;;;;;;;;;;;;-144.99;80.49;52236.13;5030504;28;19932;-68
2022/06/04 06:18:07;;;;;;;;;;;;;;;-144.99;79.37;52232.03;5030609;28;19964;-70
2022/06/04 06:20:33;;;;;;;;;;;;;;;-144.99;78.10;52219.81;5025683;28;20330;-67
2022/06/04 06:23:00;;;;;;;;;;;;;;;-144.99;77.40;52234.09;5026480;28;19933;-65
2022/06/04 06:25:27;;;;;;;;;;;;;;;-144.99;76.71;52260.56;5027647;28;20027;-65
2022/06/04 06:27:53;;;;;;;;;;;;;;;-144.99;75.17;52219.81;5019034;28;20040;-67
2022/06/04 06:30:20;;;;;;;;;;;;;;;-144.99;74.60;52199.44;5028240;28;19983;-66
2022/06/04 06:32:46;;;;;;;;;;;;;;;-144.99;74.34;52232.03;5030102;28;19936;-66
2022/06/04 06:35:14;;;;;;;;;;;;;;;-144.99;73.31;52215.75;5029592;28;19968;-66
2022/06/04 06:37:41;;;;;;;;;;;;;;;-144.99;72.58;52209.63;5023395;28;20071;-66
2022/06/04 06:40:08;;;;;;;;;;;;;;;-144.99;71.78;52232.03;5028953;28;19933;-67
2022/06/04 06:42:35;;;;;;;;;;;;;;;-144.99;71.56;52187.19;5029346;28;19925;-66
2022/06/04 06:45:01;;;;;;;;;;;;;;;-144.99;71.18;52223.88;5029895;28;20012;-67
2022/06/04 06:47:28;;;;;;;;;;;;;;;-144.99;70.38;52221.84;5028241;28;19931;-66
2022/06/04 06:49:54;;;;;;;;;;;;;;;-144.99;70.08;52240.19;5029725;28;19929;-70
2022/06/04 06:52:22;;;;;;;;;;;;;;;-144.99;69.09;52217.78;5028576;28;20001;-68
2022/06/04 06:54:49;;;;;;;;;;;;;;;-144.99;68.50;52199.44;5030508;28;19976;-68
2022/06/04 06:57:17;;;;;;;;;;;;;;;-144.99;67.63;52207.59;5030099;28;19968;-68
2022/06/04 06:59:49;;;;;;;;;;;;;;;-144.99;66.71;52187.19;5055333;22;20003;-67
2022/06/04 07:02:16;;;;;;;;;;;;;;;-144.99;66.01;52213.69;5083863;28;20326;-66
2022/06/04 07:04:43;;;;;;;;;;;;;;;-144.99;65.21;52187.19;5087238;28;19928;-66
2022/06/04 07:07:09;;;;;;;;;;;;;;;-144.99;64.55;52223.88;5087338;28;19976;-66
2022/06/04 07:09:38;;;;;;;;;;;;;;;-144.99;64.19;52199.44;5089657;28;19978;-66
2022/06/04 07:12:06;;;;;;;;;;;;;;;-144.99;64.00;52199.44;5086977;28;19932;-66
2022/06/04 07:14:32;;;;;;;;;;;;;;;-144.99;63.75;52203.50;5086581;28;20011;-66
2022/06/04 07:16:59;;;;;;;;;;;;;;;-144.99;62.76;52215.75;5085705;28;19990;-66
2022/06/04 07:19:26;;;;;;;;;;;;;;;-144.99;62.18;52195.34;5089760;28;19931;-66
2022/06/04 07:21:53;;;;;;;;;;;;;;;-144.99;61.43;52179.06;5080587;28;19932;-66
2022/06/04 07:24:20;;;;;;;;;;;;;;;-144.99;60.95;52195.34;5087852;28;19967;-66
2022/06/04 07:26:49;;;;;;;;;;;;;;;-144.99;60.00;52211.66;5083269;28;19950;-65
2022/06/04 07:29:15;;;;;;;;;;;;;;;-144.99;59.19;52166.81;5082106;28;19967;-65
2022/06/04 07:31:42;;;;;;;;;;;;;;;-144.99;58.47;52187.19;5085398;28;20044;-66
2022/06/04 07:34:09;;;;;;;;;;;;;;;-144.99;57.10;52166.81;5087730;28;19930;-72
2022/06/04 07:36:37;;;;;;;;;;;;;;;-144.99;56.41;52170.91;5087252;28;20035;-72
2022/06/04 07:39:04;;;;;;;;;;;;;;;-144.99;55.86;52203.50;5090056;28;20047;-72
2022/06/04 07:41:31;;;;;;;;;;;;;;;-144.99;55.98;52150.53;5089672;28;20022;-72
2022/06/04 07:43:59;;;;;;;;;;;;;;;-144.99;55.42;52130.13;5079296;28;19924;-72
2022/06/04 07:46:27;;;;;;;;;;;;;;;-144.99;54.78;52162.75;5089444;28;19977;-72
2022/06/04 07:48:54;;;;;;;;;;;;;;;-144.99;54.20;52152.56;5079156;28;19964;-72
2022/06/04 07:51:21;;;;;;;;;;;;;;;-144.99;53.76;52170.91;5090061;28;19970;-73
2022/06/04 07:53:47;;;;;;;;;;;;;;;-144.99;53.35;52183.13;5089865;28;19924;-68
2022/06/04 07:56:15;;;;;;;;;;;;;;;-144.99;52.75;52179.06;5089817;28;19924;-72
2022/06/04 07:58:42;;;;;;;;;;;;;;;-144.99;52.89;52170.91;5089633;28;19943;-71
2022/06/04 08:01:14;;;;;;;;;;;;;;;-144.99;53.26;52158.66;5089738;28;20353;-71
2022/06/04 08:03:41;;;;;;;;;;;;;;;-144.99;53.36;52185.16;5091469;28;19924;-71
2022/06/04 08:06:08;;;;;;;;;;;;;;;-144.99;53.08;52179.06;5082745;28;19924;-70
2022/06/04 08:08:35;;;;;;;;;;;;;;;-144.99;52.42;52142.38;5095131;28;19924;-71
2022/06/04 08:11:30;;;;;;;;;;;;;;;-144.99;52.16;52154.59;5095945;28;19977;-71
2022/06/04 08:13:48;;;;;;;;;;;;;;;-144.99;51.80;52154.59;5085399;28;19924;-72
2022/06/04 08:16:16;;;;;;;;;;;;;;;-144.99;51.08;52150.53;5094121;28;19963;-72
2022/06/04 08:18:43;;;;;;;;;;;;;;;-144.99;50.64;52158.66;5085604;28;19928;-71
2022/06/04 08:21:10;;;;;;;;;;;;;;;-144.99;50.67;52132.19;5084932;28;19963;-71
2022/06/04 08:23:39;;;;;;;;;;;;;;;-144.99;50.66;52162.75;5089671;28;20439;-71
2022/06/04 08:26:07;;;;;;;;;;;;;;;-144.99;51.19;52199.44;5091831;28;19924;-72
2022/06/04 08:28:33;;;;;;;;;;;;;;;-144.99;50.46;52195.34;5086664;28;19962;-71
2022/06/04 08:31:00;;;;;;;;;;;;;;;-144.99;50.30;52166.81;5091981;28;20397;-71
2022/06/04 08:33:28;;;;;;;;;;;;;;;-144.99;49.67;52154.59;5089107;28;19924;-71
2022/06/04 08:35:55;;;;;;;;;;;;;;;-144.99;49.67;52113.84;5093126;28;19924;-72
2022/06/04 08:38:22;;;;;;;;;;;;;;;-144.99;49.42;52142.38;5092759;28;20228;-69
2022/06/04 08:40:51;;;;;;;;;;;;;;;-144.99;48.66;52117.91;5092963;28;19924;-70
2022/06/04 08:43:23;;;;;;;;;;;;;;;-144.99;49.28;52158.66;5088634;28;20368;-70
2022/06/04 08:45:53;;;;;;;;;;;;;;;-144.99;48.33;52160.72;5092842;28;19946;-69
2022/06/04 08:48:21;;;;;;;;;;;;;;;-144.99;48.41;52130.13;5086128;28;20441;-70
2022/06/04 08:50:50;;;;;;;;;;;;;;;-144.99;48.46;52146.44;5092292;28;20018;-69
2022/06/04 08:53:19;;;;;;;;;;;;;;;-144.99;48.75;52126.06;5091465;28;19928;-69
2022/06/04 08:58:51;;;;;;;;;;;;;;;-144.99;48.71;52134.22;5087650;28;19931;-69
2022/06/04 09:01:20;;;;;;;;;;;;;;;-144.99;47.93;52146.44;5091146;28;20007;-70
2022/06/04 09:03:52;;;;;;;;;;;;;;;-144.99;47.72;52126.06;5087888;28;20227;-69
2022/06/04 09:06:26;;;;;;;;;;;;;;;-144.99;45.66;52109.75;5084477;28;19925;-69
2022/06/04 09:08:58;;;;;;;;;;;;;;;-144.99;45.63;52099.56;5092359;28;19989;-70
2022/06/04 09:11:28;;;;;;;;;;;;;;;-144.99;45.66;52158.66;5089539;28;20015;-70
2022/06/04 09:14:18;;;;;;;;;;;;;;;-144.99;45.86;52126.06;5091642;28;19965;-70
2022/06/04 09:16:48;;;;;;;;;;;;;;;-144.99;45.67;52109.75;5087243;28;20318;-70
2022/06/04 09:19:17;;;;;;;;;;;;;;;-144.99;46.14;52085.31;5092402;28;19970;-70
2022/06/04 09:21:46;;;;;;;;;;;;;;;-144.99;45.30;52101.59;5086484;28;19974;-70
2022/06/04 09:24:12;;;;;;;;;;;;;;;-144.99;44.88;52111.78;5089102;28;20007;-70
2022/06/04 09:26:41;;;;;;;;;;;;;;;-144.99;44.59;52097.53;5091572;28;19932;-70
2022/06/04 09:29:17;;;;;;;;;;;;;;;-144.99;44.61;52126.06;5091300;28;20102;-70
2022/06/04 09:31:48;;;;;;;;;;;;;;;-144.99;44.22;52113.84;5091516;28;20019;-70
2022/06/04 09:34:16;;;;;;;;;;;;;;;-144.99;43.89;52101.59;5091980;28;19924;-70
2022/06/04 09:36:45;;;;;;;;;;;;;;;-144.99;43.23;52113.84;5083931;28;20015;-70
2022/06/04 09:39:21;;;;;;;;;;;;;;;-144.99;43.45;52105.69;5090231;28;20170;-70
2022/06/04 09:41:50;;;;;;;;;;;;;;;-144.99;43.03;52093.44;5091437;28;20128;-70
2022/06/04 09:44:17;;;;;;;;;;;;;;;-144.99;42.81;52105.69;5091585;28;20060;-71
2022/06/04 09:46:44;;;;;;;;;;;;;;;-144.99;43.09;52113.84;5086111;28;19924;-71
2022/06/04 09:49:20;;;;;;;;;;;;;;;-144.99;43.72;52085.31;5091527;28;20308;-71
2022/06/04 09:51:47;;;;;;;;;;;;;;;-144.99;43.40;52109.75;5085400;28;20048;-71
2022/06/04 09:54:21;;;;;;;;;;;;;;;-144.99;43.00;52097.53;5092032;28;19930;-71
2022/06/04 09:56:52;;;;;;;;;;;;;;;-144.99;42.93;52073.06;5086605;28;20335;-71
2022/06/04 09:59:20;;;;;;;;;;;;;;;-144.99;42.94;52077.16;5081460;28;20015;-71
2022/06/04 10:01:54;;;;;;;;;;;;;;;-144.99;43.68;52069.00;5079920;28;20023;-71
2022/06/04 10:04:21;;;;;;;;;;;;;;;-144.99;42.78;52075.09;5083221;28;19925;-71
2022/06/04 10:06:47;;;;;;;;;;;;;;;-144.99;42.39;52064.91;5090860;28;19924;-71
2022/06/04 10:12:03;;;;;;;;;;;;;;;-144.99;41.32;52064.91;5087566;28;19935;-72
2022/06/04 10:14:31;;;;;;;;;;;;;;;-144.99;41.42;52069.00;5086184;28;19935;-72
2022/06/04 10:16:58;;;;;;;;;;;;;;;-144.99;40.59;52036.38;5088446;28;19924;-71
2022/06/04 10:19:25;;;;;;;;;;;;;;;-144.99;40.50;52016.00;5091022;28;19932;-71
2022/06/04 10:22:04;;;;;;;;;;;;;;;-144.99;40.47;52016.00;5090583;28;20020;-71
2022/06/04 10:24:32;;;;;;;;;;;;;;;-144.99;40.36;52036.38;5086018;28;19959;-71
2022/06/04 10:27:05;;;;;;;;;;;;;;;-144.99;40.52;52024.16;5091727;28;20441;-71
2022/06/04 10:29:50;;;;;;;;;;;;;;;-144.99;39.90;52048.63;5088844;28;19969;-71
2022/06/04 10:32:21;;;;;;;;;;;;;;;-144.99;40.21;52048.63;5091068;28;20034;-71
2022/06/04 10:34:52;;;;;;;;;;;;;;;-144.99;38.48;52007.84;5088469;28;19931;-71
2022/06/04 10:37:26;;;;;;;;;;;;;;;-144.99;38.65;52069.00;5083561;28;19930;-71
2022/06/04 10:39:59;;;;;;;;;;;;;;;-144.99;38.46;52022.13;5089598;28;19924;-71
2022/06/04 10:42:35;;;;;;;;;;;;;;;-144.99;37.96;52016.00;5085650;28;19971;-72
2022/06/04 10:45:07;;;;;;;;;;;;;;;-144.99;38.33;51995.63;5090635;28;19935;-71
2022/06/04 10:47:35;;;;;;;;;;;;;;;-144.99;37.76;52003.78;5086326;28;20043;-71
2022/06/04 10:50:15;;;;;;;;;;;;;;;-144.99;37.07;51987.47;5085757;28;20398;-71
2022/06/04 10:52:43;;;;;;;;;;;;;;;-144.99;37.21;52016.00;5088993;28;20340;-71
2022/06/04 10:55:13;;;;;;;;;;;;;;;-144.99;37.12;51987.47;5090494;28;20115;-71
2022/06/04 10:57:49;;;;;;;;;;;;;;;-144.99;37.10;52007.84;5089434;28;20468;-71
2022/06/04 11:00:18;;;;;;;;;;;;;;;-144.99;37.91;52003.78;5088002;28;19924;-71
2022/06/04 11:02:49;;;;;;;;;;;;;;;-144.99;37.58;51979.31;5090157;28;19928;-72
2022/06/04 11:05:19;;;;;;;;;;;;;;;-144.99;37.12;51975.25;5089950;28;19924;-71
2022/06/04 11:07:53;;;;;;;;;;;;;;;-144.99;36.74;52016.00;5088017;28;19931;-71
2022/06/04 11:10:20;;;;;;;;;;;;;;;-144.99;36.76;51967.09;5089873;28;19950;-71
2022/06/04 11:12:51;;;;;;;;;;;;;;;-144.99;36.75;51999.69;5089025;28;19977;-72
2022/06/04 11:15:22;;;;;;;;;;;;;;;-144.99;36.34;51958.94;5089920;28;20002;-71
2022/06/04 11:17:51;;;;;;;;;;;;;;;-144.99;36.44;51985.44;5087353;28;19924;-71
2022/06/04 11:20:20;;;;;;;;;;;;;;;-144.99;36.38;51979.31;5090380;28;19924;-72
2022/06/04 11:22:50;;;;;;;;;;;;;;;-144.99;36.10;51979.31;5088844;28;19928;-72
2022/06/04 11:25:24;;;;;;;;;;;;;;;-144.99;36.14;51983.41;5092037;28;20340;-71
2022/06/04 11:27:53;;;;;;;;;;;;;;;-144.99;35.99;51995.63;5090029;28;19924;-72
2022/06/04 11:30:23;;;;;;;;;;;;;;;-144.99;36.11;51995.63;5085641;28;19974;-72
2022/06/04 11:32:54;;;;;;;;;;;;;;;-144.99;36.39;51993.59;5087268;28;20400;-72
2022/06/04 11:35:27;;;;;;;;;;;;;;;-144.99;35.89;51971.16;5088011;28;19940;-72
2022/06/04 11:38:04;;;;;;;;;;;;;;;-144.99;35.20;51987.47;5090022;28;20388;-72
2022/06/04 11:40:33;;;;;;;;;;;;;;;-144.99;35.55;51995.63;5087891;28;19924;-71
2022/06/04 11:43:02;;;;;;;;;;;;;;;-144.99;35.34;51985.44;5092853;28;19928;-71
2022/06/04 11:45:43;;;;;;;;;;;;;;;-144.99;35.66;51999.69;5083901;28;20015;-71
2022/06/04 11:48:16;;;;;;;;;;;;;;;-144.99;35.47;51979.31;5091611;28;20000;-72
2022/06/04 11:50:47;;;;;;;;;;;;;;;-144.99;34.90;51983.41;5090736;28;19924;-71
2022/06/04 11:53:21;;;;;;;;;;;;;;;-144.99;35.50;51983.41;5093750;28;20159;-71
2022/06/04 11:55:51;;;;;;;;;;;;;;;-144.99;35.24;51995.63;5093328;28;19924;-72
2022/06/04 11:58:25;;;;;;;;;;;;;;;-144.99;34.87;51954.88;5083127;28;19963;-72
2022/06/04 12:00:56;;;;;;;;;;;;;;;-144.99;35.09;51963.03;5091927;28;20003;-72
2022/06/04 12:03:26;;;;;;;;;;;;;;;-144.99;35.18;51963.03;5084202;28;19974;-72
2022/06/04 12:05:56;;;;;;;;;;;;;;;-144.99;35.36;51995.63;5090734;28;20019;-72
2022/06/04 12:08:25;;;;;;;;;;;;;;;-144.99;35.16;52016.00;5088409;28;19978;-72
2022/06/04 12:11:00;;;;;;;;;;;;;;;-144.99;35.23;51975.25;5086272;28;19929;-72
2022/06/04 12:13:32;;;;;;;;;;;;;;;-144.99;35.66;51981.38;5089161;28;20011;-72
2022/06/04 12:16:02;;;;;;;;;;;;;;;-144.99;34.62;51995.63;5084917;28;19967;-72
2022/06/04 12:18:32;;;;;;;;;;;;;;;-144.99;34.89;51958.94;5090509;28;19959;-72
2022/06/04 12:26:29;;;;;;;;;;;;;;;-144.99;33.68;51950.78;5092744;28;20015;-70
2022/06/04 12:28:57;;;;;;;;;;;;;;;-144.99;33.03;51950.78;5092988;28;19997;-70
2022/06/04 12:31:35;;;;;;;;;;;;;;;-144.99;33.24;51979.31;5092192;28;20364;-70
2022/06/04 12:34:03;;;;;;;;;;;;;;;-144.99;33.27;51975.25;5093424;28;19932;-70
2022/06/04 12:36:32;;;;;;;;;;;;;;;-144.99;32.81;51971.16;5088201;28;19930;-70
2022/06/04 12:39:00;;;;;;;;;;;;;;;-144.99;33.16;51987.47;5092325;28;19932;-71
2022/06/04 12:41:37;;;;;;;;;;;;;;;-144.99;32.47;51995.63;5092248;28;19927;-71
2022/06/04 12:44:07;;;;;;;;;;;;;;;-144.99;33.24;52003.78;5090492;28;20010;-70
2022/06/04 12:46:36;;;;;;;;;;;;;;;-144.99;32.90;51944.69;5090611;28;19924;-70
2022/06/04 12:49:05;;;;;;;;;;;;;;;-144.99;32.55;51995.63;5088385;28;19970;-71
2022/06/04 12:51:38;;;;;;;;;;;;;;;-144.99;31.74;51983.41;5086634;28;19977;-71